Home > Products > Valid Products > TAF

000
FTUS42 KKEY 232300
TAFEYW
TAF
KEYW 232329Z 2400/2424 12006KT P6SM FEW022=



000
FTUS42 KKEY 232300
TAFEYW
TAF
KEYW 232329Z 2400/2424 12006KT P6SM FEW022=



000
FTUS42 KKEY 231900 AAA
TAFEYW
TAF AMD
KEYW 231941Z 2320/2418 14006KT P6SM VCTS SCT025CB SCT100
     FM232200 12007KT P6SM SCT025=



000
FTUS42 KKEY 231900 AAA
TAFEYW
TAF AMD
KEYW 231941Z 2320/2418 14006KT P6SM VCTS SCT025CB SCT100
     FM232200 12007KT P6SM SCT025=



000
FTUS42 KKEY 231700
TAFEYW
TAF
KEYW 231739Z 2318/2418 12006KT P6SM SCT025=



000
FTUS42 KKEY 231700
TAFEYW
TAF
KEYW 231739Z 2318/2418 12006KT P6SM SCT025=



000
FTUS42 KKEY 231400 AAA
TAFEYW
TAF AMD
KEYW 231445Z 2315/2412 16007KT P6SM SCT025=



000
FTUS42 KKEY 231400 AAA
TAFEYW
TAF AMD
KEYW 231445Z 2315/2412 16007KT P6SM SCT025=



000
FTUS42 KKEY 231100 RRA
TAFEYW
TAF
KEYW 231155Z 2312/2412 14007KT P6SM SCT025=



000
FTUS42 KKEY 230900 AAA
TAFEYW
TAF AMD
KEYW 230937Z 2310/2406 13005KT P6SM SCT025
     FM231300 15007KT P6SM VCSH SCT025 BKN150=



000
FTUS42 KKEY 230900 AAA
TAFEYW
TAF AMD
KEYW 230937Z 2310/2406 13005KT P6SM SCT025
     FM231300 15007KT P6SM VCSH SCT025 BKN150=



000
FTUS42 KKEY 230600 RRA
TAFEYW
TAF
KEYW 230607Z 2306/2406 10007KT P6SM SCT025=



000
FTUS42 KKEY 230600 RRA
TAFEYW
TAF
KEYW 230607Z 2306/2406 10007KT P6SM SCT025=



000
FTUS42 KKEY 222300 RRA
TAFEYW
TAF
KEYW 222344Z 2300/2324 VRB06KT P6SM FEW025
     FM230400 13007KT P6SM SCT025=



000
FTUS42 KKEY 222300 RRA
TAFEYW
TAF
KEYW 222344Z 2300/2324 VRB06KT P6SM FEW025
     FM230400 13007KT P6SM SCT025=



000
FTUS42 KKEY 222100 AAB
TAFEYW
TAF AMD
KEYW 222133Z 2222/2318 VRB06KT P6SM FEW025 BKN250=



000
FTUS42 KKEY 222100 AAB
TAFEYW
TAF AMD
KEYW 222133Z 2222/2318 VRB06KT P6SM FEW025 BKN250=



000
FTUS42 KKEY 221700 AAA
TAFEYW
TAF AMD
KEYW 221724Z 2217/2312 16009KT P6SM VCSH SCT025 BKN050 BKN120
     FM230000 15005KT P6SM SCT020 SCT050=



000
FTUS42 KKEY 221700 AAA
TAFEYW
TAF AMD
KEYW 221724Z 2217/2312 16009KT P6SM VCSH SCT025 BKN050 BKN120
     FM230000 15005KT P6SM SCT020 SCT050=



000
FTUS42 KKEY 221600 AAF
TAFEYW
TAF AMD
KEYW 221610Z 2216/2312 16009KT P6SM VCSH SCT025 BKN050 BKN100
     FM230000 15005KT P6SM SCT020 SCT050=



000
FTUS42 KKEY 221600 AAF
TAFEYW
TAF AMD
KEYW 221610Z 2216/2312 16009KT P6SM VCSH SCT025 BKN050 BKN100
     FM230000 15005KT P6SM SCT020 SCT050=



000
FTUS42 KKEY 221500 AAE
TAFEYW
TAF AMD
KEYW 221510Z 2215/2312 VRB06KT P6SM VCSH SCT025 BKN050 BKN100
      TEMPO 2215/2217 VRB15G25KT 3SM +RA BR BKN020 OVC040
     FM230000 15005KT P6SM SCT020 SCT050=



000
FTUS42 KKEY 221500 AAE
TAFEYW
TAF AMD
KEYW 221510Z 2215/2312 VRB06KT P6SM VCSH SCT025 BKN050 BKN100
      TEMPO 2215/2217 VRB15G25KT 3SM +RA BR BKN020 OVC040
     FM230000 15005KT P6SM SCT020 SCT050=



000
FTUS42 KKEY 221400 AAD
TAFEYW
TAF AMD
KEYW 221450Z 2215/2312 VRB06KT P6SM VCSH SCT025 BKN050 BKN100
      TEMPO 2215/2217 VRB15G25KT 1/2SM +TSRA FG BKN020CB OVC040
     FM230000 15005KT P6SM SCT020 SCT050=



000
FTUS42 KKEY 221400 AAD
TAFEYW
TAF AMD
KEYW 221450Z 2215/2312 VRB06KT P6SM VCSH SCT025 BKN050 BKN100
      TEMPO 2215/2217 VRB15G25KT 1/2SM +TSRA FG BKN020CB OVC040
     FM230000 15005KT P6SM SCT020 SCT050=



000
FTUS42 KKEY 221400 AAC
TAFEYW
TAF AMD
KEYW 221412Z 2214/2312 VRB06KT P6SM VCSH SCT025 BKN050 BKN100
      TEMPO 2214/2216 VRB12G20KT 4SM SHRA BR BKN025 BKN050
     FM230000 15005KT P6SM SCT020 SCT050=



000
FTUS42 KKEY 221400 AAC
TAFEYW
TAF AMD
KEYW 221412Z 2214/2312 VRB06KT P6SM VCSH SCT025 BKN050 BKN100
      TEMPO 2214/2216 VRB12G20KT 4SM SHRA BR BKN025 BKN050
     FM230000 15005KT P6SM SCT020 SCT050=



000
FTUS42 KKEY 221300 AAB
TAFEYW
TAF AMD
KEYW 221349Z 2214/2312 10006KT P6SM VCSH SCT025 BKN050 BKN100
      TEMPO 2214/2216 VRB12G20KT 4SM SHRA BR BKN025 BKN050=



000
FTUS42 KKEY 221300 AAB
TAFEYW
TAF AMD
KEYW 221349Z 2214/2312 10006KT P6SM VCSH SCT025 BKN050 BKN100
      TEMPO 2214/2216 VRB12G20KT 4SM SHRA BR BKN025 BKN050=



000
FTUS42 KKEY 221200 AAA
TAFEYW
TAF AMD
KEYW 221231Z 2213/2312 10006KT P6SM VCSH SCT025 BKN050 BKN100=



000
FTUS42 KKEY 221100
TAFEYW
TAF
KEYW 221136Z 2212/2312 11010KT P6SM VCTS SCT020CB SCT050 BKN100
      TEMPO 2212/2213 13013KT P6SM TS BKN020CB
     FM221300 17006KT P6SM VCSH SCT025 BKN050=



000
FTUS42 KKEY 221100
TAFEYW
TAF
KEYW 221136Z 2212/2312 11010KT P6SM VCTS SCT020CB SCT050 BKN100
      TEMPO 2212/2213 13013KT P6SM TS BKN020CB
     FM221300 17006KT P6SM VCSH SCT025 BKN050=



000
FTUS42 KKEY 221000 AAB
TAFEYW
TAF AMD
KEYW 221031Z 2211/2306 14010KT P6SM SCT040
      TEMPO 2211/2212 16012G20KT 3SM TSRA BKN025CB
     FM221300 17006KT P6SM VCSH SCT025 BKN050=



000
FTUS42 KKEY 221000 AAB
TAFEYW
TAF AMD
KEYW 221031Z 2211/2306 14010KT P6SM SCT040
      TEMPO 2211/2212 16012G20KT 3SM TSRA BKN025CB
     FM221300 17006KT P6SM VCSH SCT025 BKN050=



000
FTUS42 KKEY 221000 AAA
TAFEYW
TAF AMD
KEYW 221005Z 2210/2306 14010KT P6SM SCT040
     FM221300 17006KT P6SM VCSH SCT025 BKN050=



000
FTUS42 KKEY 221000 AAA
TAFEYW
TAF AMD
KEYW 221005Z 2210/2306 14010KT P6SM SCT040
     FM221300 17006KT P6SM VCSH SCT025 BKN050=



000
FTUS42 KKEY 220500
TAFEYW
TAF
KEYW 220532Z 2206/2306 14010KT P6SM VCSH SCT025=



000
FTUS42 KKEY 220500
TAFEYW
TAF
KEYW 220532Z 2206/2306 14010KT P6SM VCSH SCT025=



000
FTUS42 KKEY 212300
TAFEYW
TAF
KEYW 212333Z 2200/2224 VRB03KT P6SM FEW030
     FM220600 12005KT P6SM VCSH SCT025=



000
FTUS42 KKEY 212300
TAFEYW
TAF
KEYW 212333Z 2200/2224 VRB03KT P6SM FEW030
     FM220600 12005KT P6SM VCSH SCT025=



000
FTUS42 KKEY 211700
TAFEYW
TAF
KEYW 211732Z 2118/2218 15006KT P6SM VCSH SCT025
     FM212300 10006KT P6SM VCSH SCT025=



000
FTUS42 KKEY 211700
TAFEYW
TAF
KEYW 211732Z 2118/2218 15006KT P6SM VCSH SCT025
     FM212300 10006KT P6SM VCSH SCT025=



000
FTUS42 KKEY 211400 AAA
TAFEYW
TAF AMD
KEYW 211436Z 2115/2212 13005KT P6SM FEW020
     FM211800 09006KT P6SM VCSH SCT025=



000
FTUS42 KKEY 211400 AAA
TAFEYW
TAF AMD
KEYW 211436Z 2115/2212 13005KT P6SM FEW020
     FM211800 09006KT P6SM VCSH SCT025=



000
FTUS42 KKEY 211100
TAFEYW
TAF
KEYW 211139Z 2112/2212 12005KT P6SM FEW020
     FM211800 09006KT P6SM VCSH SCT025=



000
FTUS42 KKEY 211100
TAFEYW
TAF
KEYW 211139Z 2112/2212 12005KT P6SM FEW020
     FM211800 09006KT P6SM VCSH SCT025=



000
FTUS42 KKEY 210900 AAA
TAFEYW
TAF AMD
KEYW 210903Z 2109/2206 07004KT P6SM FEW020 SCT250
     FM211800 09007KT P6SM VCSH SCT025 SCT035=



000
FTUS42 KKEY 210900 AAA
TAFEYW
TAF AMD
KEYW 210903Z 2109/2206 07004KT P6SM FEW020 SCT250
     FM211800 09007KT P6SM VCSH SCT025 SCT035=



000
FTUS42 KKEY 210500
TAFEYW
TAF
KEYW 210526Z 2106/2206 07003KT P6SM VCSH SCT020 BKN100
     FM210800 12005KT P6SM SCT025 SCT100
     FM211800 09007KT P6SM VCSH SCT025 SCT035=



000
FTUS42 KKEY 210500
TAFEYW
TAF
KEYW 210526Z 2106/2206 07003KT P6SM VCSH SCT020 BKN100
     FM210800 12005KT P6SM SCT025 SCT100
     FM211800 09007KT P6SM VCSH SCT025 SCT035=



    US Dept of Commerce
    National Oceanic and Atmospheric Administration
    National Weather Service
    1325 East West Highway
    Silver Spring, MD 20910
    Page Author: NWS Internet Services Team
Disclaimer
Information Quality
Credits
Glossary
Privacy Policy
Freedom of Information Act (FOIA)
About Us
Career Opportunities